Terminal Aerodrome Forecast
Issued by NWS

Home | Current Version | Previous Version | Text Only | Print | Product List | Glossary Off
Versions: 1 2 3 4 5 6 7 8 9 10 11 12 13 14 15 16 17 18 19

776
FTUS43 KBIS 220319 AAA
TAFDIK
TAF AMD
KDIK 220319Z 2203/2224 15029G39KT P6SM SCT020 BKN030
     FM220600 17016KT P6SM VCTS OVC015CB
     FM221200 16012KT P6SM BKN008
     FM221700 22011KT P6SM SCT060
     FM222100 27010KT P6SM VCTS SCT060CB BKN100=

USA.gov is the U.S. government's official web portal to all federal, state and local government web resources and services.